createdAt,value
2023-05-10T00:01:27.846Z,99.90
2023-05-10T00:03:56.068Z,99.90
2023-05-10T00:06:24.248Z,99.90
2023-05-10T00:08:53.052Z,99.90
2023-05-10T00:11:22.209Z,99.90
2023-05-10T00:13:51.365Z,99.90
2023-05-10T00:16:18.998Z,99.90
2023-05-10T00:18:46.549Z,99.90
2023-05-10T00:21:14.526Z,99.90
2023-05-10T00:23:42.104Z,99.90
2023-05-10T00:26:09.652Z,99.90
2023-05-10T00:28:37.356Z,99.90
2023-05-10T00:31:04.938Z,99.90
2023-05-10T00:33:32.665Z,99.90
2023-05-10T00:36:00.398Z,99.90
2023-05-10T00:38:27.998Z,99.90
2023-05-10T00:40:55.550Z,99.90
2023-05-10T00:43:23.380Z,99.90
2023-05-10T00:45:51.026Z,99.90
2023-05-10T00:48:18.696Z,99.90
2023-05-10T00:50:46.461Z,99.90
2023-05-10T00:53:14.052Z,99.90
2023-05-10T00:55:41.662Z,99.90
2023-05-10T00:58:09.425Z,99.90
2023-05-10T01:00:37.199Z,99.90
2023-05-10T01:03:04.903Z,99.90
2023-05-10T01:05:32.870Z,99.90
2023-05-10T01:08:00.556Z,99.90
2023-05-10T01:10:28.143Z,99.90
2023-05-10T01:12:56.245Z,99.90
2023-05-10T01:15:23.840Z,99.90
2023-05-10T01:17:51.464Z,99.90
2023-05-10T01:20:19.422Z,99.90
2023-05-10T01:22:47.417Z,99.90
2023-05-10T01:25:14.998Z,99.90
2023-05-10T01:27:42.800Z,99.90
2023-05-10T01:30:16.009Z,99.90
2023-05-10T01:32:43.968Z,99.90
2023-05-10T01:35:11.608Z,99.90
2023-05-10T01:37:39.416Z,99.90
2023-05-10T01:40:07.168Z,99.90
2023-05-10T01:42:34.933Z,99.90
2023-05-10T01:45:02.527Z,99.90
2023-05-10T01:47:30.373Z,99.90
2023-05-10T01:49:57.910Z,99.90
2023-05-10T01:52:25.662Z,99.90
2023-05-10T01:54:53.246Z,99.90
2023-05-10T01:57:20.876Z,99.90
2023-05-10T01:59:48.506Z,99.90
2023-05-10T02:02:16.109Z,99.90
2023-05-10T02:04:43.791Z,99.90
2023-05-10T02:07:11.351Z,99.90
2023-05-10T02:09:38.955Z,99.90
2023-05-10T02:12:06.799Z,99.90
2023-05-10T02:14:34.449Z,99.90
2023-05-10T02:17:02.156Z,99.90
2023-05-10T02:19:29.838Z,99.90
2023-05-10T02:21:57.381Z,99.90
2023-05-10T02:24:25.162Z,99.90
2023-05-10T02:26:53.272Z,99.90
2023-05-10T02:29:20.830Z,99.90
2023-05-10T02:31:48.676Z,99.90
2023-05-10T02:34:16.252Z,99.90
2023-05-10T02:36:43.819Z,99.90
2023-05-10T02:39:11.430Z,99.90
2023-05-10T02:41:39.000Z,99.90
2023-05-10T02:44:07.490Z,99.90
2023-05-10T02:46:35.093Z,99.90
2023-05-10T02:49:02.726Z,99.70
2023-05-10T02:51:31.419Z,99.50
2023-05-10T02:54:00.156Z,99.80
2023-05-10T02:56:27.852Z,99.20
2023-05-10T02:58:55.423Z,99.20
2023-05-10T03:01:23.210Z,99.90
2023-05-10T03:03:51.142Z,99.00
2023-05-10T03:06:18.704Z,99.80
2023-05-10T03:08:46.537Z,99.70
2023-05-10T03:11:15.206Z,99.20
2023-05-10T03:13:42.809Z,99.10
2023-05-10T03:16:10.761Z,98.60
2023-05-10T03:18:39.044Z,98.70
2023-05-10T03:21:06.585Z,97.90
2023-05-10T03:23:34.442Z,98.30
2023-05-10T03:26:02.216Z,98.20
2023-05-10T03:28:29.768Z,96.70
2023-05-10T03:30:57.673Z,97.40
2023-05-10T03:33:25.399Z,97.10
2023-05-10T03:35:52.977Z,96.70
2023-05-10T03:38:20.576Z,96.00
2023-05-10T03:40:48.354Z,96.00
2023-05-10T03:43:15.914Z,96.30
2023-05-10T03:45:43.553Z,96.30
2023-05-10T03:48:11.207Z,96.70
2023-05-10T03:50:38.758Z,95.50
2023-05-10T03:53:06.420Z,96.00
2023-05-10T03:55:34.535Z,95.70
2023-05-10T03:58:02.227Z,95.10
2023-05-10T04:00:29.937Z,94.50
2023-05-10T04:02:57.690Z,94.10
2023-05-10T04:05:25.296Z,94.10
2023-05-10T04:07:52.992Z,94.00
2023-05-10T04:10:20.607Z,93.30
2023-05-10T04:12:48.236Z,93.90
2023-05-10T04:15:15.956Z,93.60
2023-05-10T04:17:43.608Z,93.80
2023-05-10T04:20:12.056Z,93.30
2023-05-10T04:22:39.890Z,93.30
2023-05-10T04:25:07.471Z,93.00
2023-05-10T04:27:35.005Z,93.00
2023-05-10T04:30:02.770Z,93.10
2023-05-10T04:32:30.640Z,92.30
2023-05-10T04:34:58.244Z,93.20
2023-05-10T04:37:25.989Z,92.50
2023-05-10T04:39:53.676Z,92.50
2023-05-10T04:42:21.263Z,92.30
2023-05-10T04:44:48.950Z,92.20
2023-05-10T04:47:17.577Z,92.20
2023-05-10T04:49:45.136Z,92.00
2023-05-10T04:52:12.726Z,91.80
2023-05-10T04:54:40.433Z,92.10
2023-05-10T04:57:08.041Z,92.80
2023-05-10T04:59:35.641Z,92.60
2023-05-10T05:02:03.665Z,92.70
2023-05-10T05:04:31.463Z,92.70
2023-05-10T05:06:59.298Z,92.30
2023-05-10T05:09:26.963Z,91.20
2023-05-10T05:11:54.555Z,91.60
2023-05-10T05:14:22.421Z,91.30
2023-05-10T05:16:50.154Z,90.20
2023-05-10T05:19:17.843Z,90.40
2023-05-10T05:21:45.484Z,90.90
2023-05-10T05:24:13.184Z,90.70
2023-05-10T05:26:40.740Z,88.20
2023-05-10T05:29:08.335Z,88.50
2023-05-10T05:31:36.476Z,85.90
2023-05-10T05:34:04.095Z,89.00
2023-05-10T05:36:31.896Z,89.60
2023-05-10T05:38:59.562Z,88.20
2023-05-10T05:41:27.175Z,90.60
2023-05-10T05:43:54.963Z,90.00
2023-05-10T05:46:22.788Z,89.50
2023-05-10T05:48:50.562Z,87.10
2023-05-10T05:51:18.284Z,85.60
2023-05-10T05:53:46.018Z,89.70
2023-05-10T05:56:13.697Z,89.00
2023-05-10T05:58:41.396Z,89.90
2023-05-10T06:01:09.045Z,89.60
2023-05-10T06:03:36.561Z,89.30
2023-05-10T06:06:04.953Z,87.70
2023-05-10T06:08:33.190Z,88.20
2023-05-10T06:11:00.884Z,87.90
2023-05-10T06:13:28.577Z,87.60
2023-05-10T06:15:56.311Z,87.70
2023-05-10T06:18:23.935Z,88.10
2023-05-10T06:20:51.467Z,88.00
2023-05-10T06:23:19.185Z,88.00
2023-05-10T06:25:46.854Z,90.10
2023-05-10T06:28:14.647Z,88.20
2023-05-10T06:30:42.317Z,87.70
2023-05-10T06:33:09.997Z,89.10
2023-05-10T06:35:37.934Z,90.10
2023-05-10T06:38:05.643Z,90.10
2023-05-10T06:40:33.298Z,89.90
2023-05-10T06:43:01.030Z,90.30
2023-05-10T06:45:28.664Z,89.10
2023-05-10T06:47:56.284Z,87.50
2023-05-10T06:50:23.947Z,86.40
2023-05-10T06:52:53.053Z,86.50
2023-05-10T06:55:20.857Z,87.40
2023-05-10T06:57:48.463Z,88.20
2023-05-10T07:00:16.338Z,89.20
2023-05-10T07:02:44.179Z,89.10
2023-05-10T07:05:11.761Z,88.20
2023-05-10T07:07:39.359Z,88.40
2023-05-10T07:10:07.110Z,87.20
2023-05-10T07:12:34.982Z,86.20
2023-05-10T07:15:02.890Z,85.50
2023-05-10T07:17:30.868Z,84.10
2023-05-10T07:19:58.533Z,83.80
2023-05-10T07:22:26.416Z,83.60
2023-05-10T07:24:54.112Z,82.30
2023-05-10T07:27:21.705Z,83.30
2023-05-10T07:29:49.486Z,83.50
2023-05-10T07:32:17.046Z,84.00
2023-05-10T07:34:44.971Z,84.90
2023-05-10T07:37:12.724Z,84.30
2023-05-10T07:39:40.463Z,81.80
2023-05-10T07:42:08.552Z,83.00
2023-05-10T07:44:36.159Z,83.10
2023-05-10T07:47:03.772Z,84.70
2023-05-10T07:49:32.021Z,84.10
2023-05-10T07:51:59.635Z,82.60
2023-05-10T07:54:27.179Z,81.90
2023-05-10T07:56:54.742Z,81.60
2023-05-10T07:59:22.373Z,82.40
2023-05-10T08:01:49.927Z,82.70
2023-05-10T08:04:17.832Z,81.80
2023-05-10T08:06:45.397Z,81.70
2023-05-10T08:09:12.958Z,83.30
2023-05-10T08:11:40.683Z,84.20
2023-05-10T08:14:08.329Z,82.90
2023-05-10T08:16:36.047Z,83.30
2023-05-10T08:19:03.912Z,83.70
2023-05-10T08:21:31.516Z,83.60
2023-05-10T08:23:59.390Z,85.00
2023-05-10T08:26:27.014Z,83.90
2023-05-10T08:28:54.732Z,82.60
2023-05-10T08:31:22.326Z,82.20
2023-05-10T08:33:49.962Z,82.90
2023-05-10T08:36:17.470Z,82.00
2023-05-10T08:38:45.208Z,81.50
2023-05-10T08:41:12.754Z,81.90
2023-05-10T08:43:40.372Z,82.60
2023-05-10T08:46:08.408Z,83.10
2023-05-10T08:48:36.310Z,83.80
2023-05-10T08:51:03.915Z,83.10
2023-05-10T08:53:31.639Z,83.90
2023-05-10T08:55:59.365Z,84.40
2023-05-10T08:58:26.968Z,84.80
2023-05-10T09:00:54.608Z,85.10
2023-05-10T09:03:22.396Z,86.10
2023-05-10T09:05:49.981Z,84.20
2023-05-10T09:08:17.736Z,84.30
2023-05-10T09:10:45.526Z,84.70
2023-05-10T09:13:13.081Z,86.00
2023-05-10T09:15:40.963Z,89.00
2023-05-10T09:18:16.687Z,88.20
2023-05-10T09:20:47.914Z,87.60
2023-05-10T09:31:21.246Z,90.20
2023-05-10T09:33:49.039Z,90.40
2023-05-10T09:36:16.667Z,90.40
2023-05-10T09:38:44.346Z,90.30
2023-05-10T09:41:12.091Z,90.00
2023-05-10T09:43:39.638Z,89.90
2023-05-10T09:46:10.768Z,90.60
2023-05-10T09:54:05.504Z,91.50
2023-05-10T09:56:34.536Z,91.70
2023-05-10T09:59:03.559Z,91.90
2023-05-10T10:01:31.504Z,92.10
2023-05-10T10:03:59.260Z,91.80
2023-05-10T10:06:30.341Z,91.90
2023-05-10T10:08:58.604Z,91.60
2023-05-10T10:11:32.145Z,92.00
2023-05-10T10:19:28.830Z,92.70
2023-05-10T10:21:58.274Z,92.80
2023-05-10T10:24:26.433Z,93.00
2023-05-10T10:26:54.001Z,92.60
2023-05-10T10:29:21.711Z,92.10
2023-05-10T10:31:50.043Z,91.40
2023-05-10T10:34:18.940Z,90.60
2023-05-10T10:36:47.637Z,89.40
2023-05-10T10:39:15.342Z,90.30
2023-05-10T10:41:42.908Z,90.50
2023-05-10T10:44:12.648Z,91.70
2023-05-10T10:46:42.762Z,91.90
2023-05-10T10:49:15.604Z,91.90
2023-05-10T10:51:43.465Z,91.30
2023-05-10T10:54:11.091Z,91.10
2023-05-10T10:56:38.778Z,90.60
2023-05-10T10:59:06.588Z,90.80
2023-05-10T11:01:46.424Z,91.10
2023-05-10T11:06:56.352Z,91.90
2023-05-10T11:12:13.374Z,92.60
2023-05-10T11:14:50.103Z,93.40
2023-05-10T11:17:32.124Z,94.00
2023-05-10T11:20:00.394Z,94.20
2023-05-10T11:22:28.007Z,94.40
2023-05-10T11:24:55.588Z,96.00
2023-05-10T11:27:23.222Z,95.40
2023-05-10T11:29:51.052Z,95.80
2023-05-10T11:32:18.542Z,95.60
2023-05-10T11:35:02.781Z,95.30
2023-05-10T11:37:43.937Z,95.60
2023-05-10T11:40:30.740Z,95.90
2023-05-10T11:42:59.283Z,96.20
2023-05-10T11:45:28.489Z,95.50
2023-05-10T11:47:56.098Z,95.40
2023-05-10T11:50:23.902Z,95.40
2023-05-10T11:52:51.538Z,95.60
2023-05-10T11:55:19.246Z,95.70
2023-05-10T11:57:57.421Z,95.70
2023-05-10T12:03:15.217Z,95.90
2023-05-10T12:05:44.341Z,96.00
2023-05-10T12:08:12.515Z,96.20
2023-05-10T12:10:40.038Z,96.00
2023-05-10T12:13:07.772Z,96.50
2023-05-10T12:15:36.913Z,96.90
2023-05-10T12:18:13.872Z,96.90
2023-05-10T12:20:45.806Z,97.00
2023-05-10T12:26:01.418Z,97.20
2023-05-10T12:28:29.402Z,97.20
2023-05-10T12:30:57.075Z,97.10
2023-05-10T12:33:25.778Z,97.20
2023-05-10T12:35:53.378Z,96.70
2023-05-10T12:38:20.885Z,96.60
2023-05-10T12:40:49.413Z,97.10
2023-05-10T12:43:17.368Z,97.10
2023-05-10T12:48:44.628Z,96.40
2023-05-10T12:53:57.073Z,96.30
2023-05-10T12:56:31.288Z,96.10
2023-05-10T12:58:59.280Z,95.70
2023-05-10T13:01:27.069Z,95.50
2023-05-10T13:03:54.675Z,95.60
2023-05-10T13:06:22.509Z,95.30
2023-05-10T13:08:50.913Z,95.60
2023-05-10T13:11:18.448Z,95.60
2023-05-10T13:13:46.661Z,95.70
2023-05-10T13:16:14.231Z,95.60
2023-05-10T13:21:22.571Z,95.10
2023-05-10T13:23:50.327Z,94.90
2023-05-10T13:26:17.983Z,94.70
2023-05-10T13:28:45.968Z,94.80
2023-05-10T13:31:13.524Z,95.10
2023-05-10T13:33:42.233Z,95.40
2023-05-10T13:36:09.902Z,95.50
2023-05-10T13:38:37.541Z,95.30
2023-05-10T13:41:05.116Z,95.60
2023-05-10T13:43:33.093Z,95.50
2023-05-10T13:46:00.805Z,95.30
2023-05-10T13:48:28.509Z,94.90
2023-05-10T13:50:56.450Z,94.80
2023-05-10T13:53:24.322Z,94.70
2023-05-10T13:55:52.352Z,94.40
2023-05-10T13:58:21.086Z,94.10
2023-05-10T14:00:49.821Z,94.20
2023-05-10T14:03:17.527Z,94.40
2023-05-10T14:05:45.916Z,94.20
2023-05-10T14:08:13.513Z,94.20
2023-05-10T14:10:41.034Z,94.10
2023-05-10T14:13:08.804Z,94.40
2023-05-10T14:15:37.030Z,94.10
2023-05-10T14:20:46.452Z,94.10
2023-05-10T14:23:14.159Z,93.80
2023-05-10T14:25:41.708Z,93.70
2023-05-10T14:28:09.527Z,94.10
2023-05-10T14:30:37.102Z,93.90
2023-05-10T14:33:04.762Z,93.80
2023-05-10T14:35:35.622Z,93.80
2023-05-10T14:38:09.385Z,93.80
2023-05-10T14:40:40.047Z,94.10
2023-05-10T14:43:07.656Z,94.00
2023-05-10T14:45:35.276Z,94.30
2023-05-10T14:48:07.271Z,94.00
2023-05-10T14:53:15.871Z,93.70
2023-05-10T14:55:43.757Z,94.00
2023-05-10T14:58:11.350Z,94.20
2023-05-10T15:00:39.004Z,94.50
2023-05-10T15:03:08.028Z,94.70
2023-05-10T15:05:50.699Z,94.80
2023-05-10T15:08:22.192Z,94.80
2023-05-10T15:10:57.332Z,94.70
2023-05-10T15:13:44.315Z,94.60
2023-05-10T15:16:14.517Z,95.00
2023-05-10T15:18:42.099Z,95.10
2023-05-10T15:21:10.728Z,95.40
2023-05-10T15:23:38.232Z,96.00
2023-05-10T15:26:10.561Z,96.10
2023-05-10T15:28:41.309Z,96.00
2023-05-10T15:31:11.818Z,96.40
2023-05-10T15:33:44.939Z,97.00
2023-05-10T15:36:12.529Z,97.10
2023-05-10T15:38:40.046Z,97.20
2023-05-10T15:41:08.177Z,97.10
2023-05-10T15:43:35.684Z,97.60
2023-05-10T15:46:03.309Z,97.90
2023-05-10T15:48:30.999Z,98.30
2023-05-10T15:50:58.489Z,98.20
2023-05-10T15:53:26.045Z,97.70
2023-05-10T15:55:54.124Z,97.70
2023-05-10T15:58:21.699Z,97.60
2023-05-10T16:00:49.458Z,98.30
2023-05-10T16:03:25.929Z,98.40
2023-05-10T16:05:54.610Z,98.40
2023-05-10T16:08:22.442Z,98.00
2023-05-10T16:10:50.052Z,97.90
2023-05-10T16:13:17.674Z,98.00
2023-05-10T16:15:45.385Z,98.40
2023-05-10T16:18:12.924Z,99.50
2023-05-10T16:20:46.054Z,99.90
2023-05-10T16:23:13.972Z,99.90
2023-05-10T16:25:41.539Z,99.90
2023-05-10T16:28:09.049Z,99.90
2023-05-10T16:30:36.876Z,99.90
2023-05-10T16:33:04.642Z,99.90
2023-05-10T16:35:32.436Z,99.90
2023-05-10T16:38:00.477Z,99.90
2023-05-10T16:40:28.050Z,99.90
2023-05-10T16:42:55.596Z,99.90
2023-05-10T16:45:23.284Z,99.90
2023-05-10T16:47:50.911Z,98.70
2023-05-10T16:50:18.503Z,99.00
2023-05-10T16:52:46.478Z,99.00
2023-05-10T16:55:13.993Z,99.20
2023-05-10T16:57:41.651Z,99.90
2023-05-10T17:00:09.338Z,99.80
2023-05-10T17:02:38.948Z,99.90
2023-05-10T17:05:06.576Z,99.90
2023-05-10T17:07:34.295Z,99.90
2023-05-10T17:10:01.812Z,99.90
2023-05-10T17:12:29.421Z,99.90
2023-05-10T17:14:57.282Z,99.90
2023-05-10T17:17:24.883Z,99.90
2023-05-10T17:19:52.445Z,99.90
2023-05-10T17:22:20.457Z,99.90
2023-05-10T17:24:48.140Z,99.90
2023-05-10T17:27:15.677Z,99.90
2023-05-10T17:29:43.483Z,99.90
2023-05-10T17:32:11.036Z,99.90
2023-05-10T17:34:38.604Z,99.90
2023-05-10T17:37:07.297Z,99.90
2023-05-10T17:39:35.250Z,99.90
2023-05-10T17:42:02.822Z,99.90
2023-05-10T17:44:30.826Z,99.90
2023-05-10T17:46:58.409Z,99.90
2023-05-10T17:49:25.914Z,99.90
2023-05-10T17:51:53.915Z,99.90
2023-05-10T17:54:22.679Z,99.90
2023-05-10T17:56:50.264Z,99.90
2023-05-10T17:59:17.976Z,99.90
2023-05-10T18:01:45.582Z,99.90
2023-05-10T18:04:13.872Z,99.90
2023-05-10T18:06:41.913Z,99.90
2023-05-10T18:09:09.948Z,99.90
2023-05-10T18:11:37.757Z,99.90
2023-05-10T18:14:05.670Z,99.90
2023-05-10T18:16:33.278Z,99.90
2023-05-10T18:19:02.754Z,99.90
2023-05-10T18:21:30.931Z,99.90
2023-05-10T18:23:58.486Z,99.90
2023-05-10T18:26:26.007Z,99.90
2023-05-10T18:28:54.029Z,99.90
2023-05-10T18:31:21.622Z,99.90
2023-05-10T18:33:49.225Z,99.90
2023-05-10T18:36:17.290Z,99.90
2023-05-10T18:38:45.639Z,99.90
2023-05-10T18:41:13.215Z,99.90
2023-05-10T18:43:40.984Z,99.90
2023-05-10T18:46:08.508Z,99.90
2023-05-10T18:48:36.100Z,99.90
2023-05-10T18:51:04.020Z,99.90
2023-05-10T18:53:31.587Z,99.90
2023-05-10T18:55:59.161Z,99.90
2023-05-10T18:58:27.666Z,99.90
2023-05-10T19:00:55.220Z,99.90
2023-05-10T19:03:22.739Z,99.90
2023-05-10T19:05:51.402Z,99.90
2023-05-10T19:08:18.959Z,99.90
2023-05-10T19:10:46.560Z,99.90
2023-05-10T19:13:14.686Z,99.90
2023-05-10T19:15:42.589Z,99.90
2023-05-10T19:18:10.286Z,99.90
2023-05-10T19:20:39.744Z,99.90
2023-05-10T19:23:10.125Z,99.90
2023-05-10T19:25:38.308Z,99.90
2023-05-10T19:28:08.933Z,99.90
2023-05-10T19:30:36.940Z,99.90
2023-05-10T19:33:07.708Z,99.90
2023-05-10T19:35:35.295Z,99.90
2023-05-10T19:38:02.975Z,99.90
2023-05-10T19:40:30.716Z,99.90
2023-05-10T19:42:58.381Z,99.90
2023-05-10T19:45:25.936Z,99.90
2023-05-10T19:47:53.516Z,99.90
2023-05-10T19:50:21.422Z,99.90
2023-05-10T19:52:50.436Z,99.90
2023-05-10T19:55:21.099Z,99.90
2023-05-10T19:57:48.764Z,99.90
2023-05-10T20:00:16.429Z,99.90
2023-05-10T20:02:44.181Z,99.90
2023-05-10T20:05:11.721Z,99.90
2023-05-10T20:07:39.265Z,99.90
2023-05-10T20:10:07.097Z,99.90
2023-05-10T20:12:36.510Z,99.90
2023-05-10T20:15:04.325Z,99.90
2023-05-10T20:17:32.922Z,99.90
2023-05-10T20:20:00.948Z,99.90
2023-05-10T20:22:29.672Z,99.90
2023-05-10T20:24:57.727Z,99.90
2023-05-10T20:27:25.590Z,99.90
2023-05-10T20:29:53.175Z,99.90
2023-05-10T20:32:20.830Z,99.90
2023-05-10T20:34:48.724Z,99.90
2023-05-10T20:37:17.026Z,99.90
2023-05-10T20:39:44.849Z,99.90
2023-05-10T20:42:12.649Z,99.90
2023-05-10T20:44:40.243Z,99.90
2023-05-10T20:47:07.799Z,99.90
2023-05-10T20:49:53.789Z,99.90
2023-05-10T20:52:40.046Z,99.90
2023-05-10T20:55:27.987Z,99.90
2023-05-10T20:58:15.819Z,99.90
2023-05-10T21:01:03.628Z,99.90
2023-05-10T21:03:51.471Z,99.90
2023-05-10T21:06:39.436Z,99.90
2023-05-10T21:09:27.250Z,99.90
2023-05-10T21:12:15.017Z,99.90
2023-05-10T21:15:02.838Z,99.90
2023-05-10T21:17:50.607Z,99.90
2023-05-10T21:20:38.426Z,99.90
2023-05-10T21:23:26.985Z,99.90
2023-05-10T21:26:14.768Z,99.90
2023-05-10T21:29:02.701Z,99.90
2023-05-10T21:31:51.861Z,99.90
2023-05-10T21:34:40.328Z,99.90
2023-05-10T21:37:28.133Z,99.90
2023-05-10T21:40:16.184Z,99.90
2023-05-10T21:43:04.474Z,99.90
2023-05-10T21:45:52.498Z,99.90
2023-05-10T21:48:40.505Z,99.90
2023-05-10T21:51:28.728Z,99.90
2023-05-10T21:54:16.728Z,99.90
2023-05-10T21:57:04.678Z,99.90
2023-05-10T21:59:52.635Z,99.90
2023-05-10T22:02:40.696Z,99.90
2023-05-10T22:05:28.666Z,99.90
2023-05-10T22:08:16.512Z,99.90
2023-05-10T22:11:04.356Z,99.90
2023-05-10T22:13:53.885Z,99.90
2023-05-10T22:16:41.757Z,99.90
2023-05-10T22:19:29.697Z,99.90
2023-05-10T22:22:17.653Z,99.90
2023-05-10T22:25:05.538Z,99.90
2023-05-10T22:27:53.375Z,99.90
2023-05-10T22:30:42.244Z,99.90
2023-05-10T22:33:30.288Z,99.90
2023-05-10T22:36:18.092Z,99.90
2023-05-10T22:39:06.068Z,99.90
2023-05-10T22:41:54.409Z,99.90
2023-05-10T22:44:43.262Z,99.90
2023-05-10T22:47:31.255Z,99.90
2023-05-10T22:50:19.378Z,99.90
2023-05-10T22:53:07.542Z,99.90
2023-05-10T22:55:55.526Z,99.90
2023-05-10T22:58:43.376Z,99.90
2023-05-10T23:01:31.240Z,99.90
2023-05-10T23:04:19.127Z,99.90
2023-05-10T23:07:07.127Z,99.90
2023-05-10T23:09:54.953Z,99.90
2023-05-10T23:12:42.917Z,99.90
2023-05-10T23:15:30.744Z,99.90
2023-05-10T23:18:18.738Z,99.90
2023-05-10T23:20:46.402Z,99.90
2023-05-10T23:23:15.483Z,99.90
2023-05-10T23:25:43.384Z,99.90
2023-05-10T23:28:11.338Z,99.90
2023-05-10T23:30:46.260Z,99.90
2023-05-10T23:33:16.625Z,99.90
2023-05-10T23:35:44.974Z,99.90
2023-05-10T23:38:15.434Z,99.90
2023-05-10T23:40:45.160Z,99.90
2023-05-10T23:43:13.426Z,99.90
2023-05-10T23:45:45.143Z,99.90
2023-05-10T23:48:18.524Z,99.90
2023-05-10T23:50:50.433Z,99.90
2023-05-10T23:53:18.381Z,99.90
2023-05-10T23:55:46.411Z,99.90
2023-05-10T23:58:14.630Z,99.90
